sensor_id;sensor_type;location;lat;lon;timestamp;temperature;humidity
71291;DHT22;59073;51.994;4.448;2022-11-03T00:02:19;13.49;71.51
71291;DHT22;59073;51.994;4.448;2022-11-03T00:04:45;13.41;71.83
71291;DHT22;59073;51.994;4.448;2022-11-03T00:07:10;13.41;71.69
71291;DHT22;59073;51.994;4.448;2022-11-03T00:09:36;13.41;71.73
71291;DHT22;59073;51.994;4.448;2022-11-03T00:12:01;13.41;71.92
71291;DHT22;59073;51.994;4.448;2022-11-03T00:14:27;13.41;72.13
71291;DHT22;59073;51.994;4.448;2022-11-03T00:16:53;13.42;72.20
71291;DHT22;59073;51.994;4.448;2022-11-03T00:19:18;13.41;72.31
71291;DHT22;59073;51.994;4.448;2022-11-03T00:21:44;13.32;72.56
71291;DHT22;59073;51.994;4.448;2022-11-03T00:24:10;13.32;72.42
71291;DHT22;59073;51.994;4.448;2022-11-03T00:26:37;13.41;72.46
71291;DHT22;59073;51.994;4.448;2022-11-03T00:29:09;13.45;72.40
71291;DHT22;59073;51.994;4.448;2022-11-03T00:31:36;13.43;72.50
71291;DHT22;59073;51.994;4.448;2022-11-03T00:34:03;13.43;72.46
71291;DHT22;59073;51.994;4.448;2022-11-03T00:36:38;13.41;72.61
71291;DHT22;59073;51.994;4.448;2022-11-03T00:39:05;13.41;72.71
71291;DHT22;59073;51.994;4.448;2022-11-03T00:41:31;13.45;72.74
71291;DHT22;59073;51.994;4.448;2022-11-03T00:43:57;13.42;73.01
71291;DHT22;59073;51.994;4.448;2022-11-03T00:46:23;13.41;73.17
71291;DHT22;59073;51.994;4.448;2022-11-03T00:48:49;13.39;73.28
71291;DHT22;59073;51.994;4.448;2022-11-03T00:51:18;13.38;73.47
71291;DHT22;59073;51.994;4.448;2022-11-03T00:53:52;13.38;73.44
71291;DHT22;59073;51.994;4.448;2022-11-03T00:56:29;13.35;73.79
71291;DHT22;59073;51.994;4.448;2022-11-03T00:58:57;13.38;73.77
71291;DHT22;59073;51.994;4.448;2022-11-03T01:01:25;13.32;73.85
71291;DHT22;59073;51.994;4.448;2022-11-03T01:03:53;13.38;73.87
71291;DHT22;59073;51.994;4.448;2022-11-03T01:06:41;13.34;74.08
71291;DHT22;59073;51.994;4.448;2022-11-03T01:14:26;13.22;74.72
71291;DHT22;59073;51.994;4.448;2022-11-03T01:16:51;13.25;74.76
71291;DHT22;59073;51.994;4.448;2022-11-03T01:19:17;13.25;74.82
71291;DHT22;59073;51.994;4.448;2022-11-03T01:21:42;13.22;74.98
71291;DHT22;59073;51.994;4.448;2022-11-03T01:24:08;13.21;74.96
71291;DHT22;59073;51.994;4.448;2022-11-03T01:26:33;13.21;75.14
71291;DHT22;59073;51.994;4.448;2022-11-03T01:28:59;13.25;75.01
71291;DHT22;59073;51.994;4.448;2022-11-03T01:31:26;13.25;75.14
71291;DHT22;59073;51.994;4.448;2022-11-03T01:33:53;13.25;75.06
71291;DHT22;59073;51.994;4.448;2022-11-03T01:36:20;13.18;75.21
71291;DHT22;59073;51.994;4.448;2022-11-03T01:38:46;13.26;75.24
71291;DHT22;59073;51.994;4.448;2022-11-03T01:41:18;13.29;75.19
71291;DHT22;59073;51.994;4.448;2022-11-03T01:43:46;13.29;75.14
71291;DHT22;59073;51.994;4.448;2022-11-03T01:46:22;13.21;75.40
71291;DHT22;59073;51.994;4.448;2022-11-03T01:49:03;13.25;75.35
71291;DHT22;59073;51.994;4.448;2022-11-03T01:51:33;13.22;75.54
71291;DHT22;59073;51.994;4.448;2022-11-03T01:54:05;13.22;75.54
71291;DHT22;59073;51.994;4.448;2022-11-03T01:56:35;13.29;75.43
71291;DHT22;59073;51.994;4.448;2022-11-03T01:59:03;13.26;75.53
71291;DHT22;59073;51.994;4.448;2022-11-03T02:01:30;13.25;75.51
71291;DHT22;59073;51.994;4.448;2022-11-03T02:04:03;13.25;75.47
71291;DHT22;59073;51.994;4.448;2022-11-03T02:06:31;13.22;75.55
71291;DHT22;59073;51.994;4.448;2022-11-03T02:09:06;13.23;75.64
71291;DHT22;59073;51.994;4.448;2022-11-03T02:11:33;13.25;75.76
71291;DHT22;59073;51.994;4.448;2022-11-03T02:14:17;13.25;75.65
71291;DHT22;59073;51.994;4.448;2022-11-03T02:16:49;13.23;75.80
71291;DHT22;59073;51.994;4.448;2022-11-03T02:25:01;13.28;75.85
71291;DHT22;59073;51.994;4.448;2022-11-03T02:27:28;13.39;75.96
71291;DHT22;59073;51.994;4.448;2022-11-03T02:29:54;13.39;75.79
71291;DHT22;59073;51.994;4.448;2022-11-03T02:32:24;13.41;75.97
71291;DHT22;59073;51.994;4.448;2022-11-03T02:35:18;13.41;75.91
71291;DHT22;59073;51.994;4.448;2022-11-03T02:37:49;13.39;75.90
71291;DHT22;59073;51.994;4.448;2022-11-03T02:40:25;13.43;75.95
71291;DHT22;59073;51.994;4.448;2022-11-03T02:42:52;13.45;75.77
71291;DHT22;59073;51.994;4.448;2022-11-03T02:45:23;13.46;75.89
71291;DHT22;59073;51.994;4.448;2022-11-03T02:47:54;13.46;75.98
71291;DHT22;59073;51.994;4.448;2022-11-03T02:50:25;13.48;76.01
71291;DHT22;59073;51.994;4.448;2022-11-03T02:52:51;13.43;76.18
71291;DHT22;59073;51.994;4.448;2022-11-03T02:55:37;13.42;76.06
71291;DHT22;59073;51.994;4.448;2022-11-03T03:00:48;13.43;76.10
71291;DHT22;59073;51.994;4.448;2022-11-03T03:03:48;13.46;76.31
71291;DHT22;59073;51.994;4.448;2022-11-03T03:06:24;13.42;76.45
71291;DHT22;59073;51.994;4.448;2022-11-03T03:08:59;13.35;76.46
71291;DHT22;59073;51.994;4.448;2022-11-03T03:11:26;13.32;76.59
71291;DHT22;59073;51.994;4.448;2022-11-03T03:14:19;13.25;77.08
71291;DHT22;59073;51.994;4.448;2022-11-03T03:17:14;13.26;77.05
71291;DHT22;59073;51.994;4.448;2022-11-03T03:20:01;13.28;76.91
71291;DHT22;59073;51.994;4.448;2022-11-03T03:27:49;13.34;77.05
71291;DHT22;59073;51.994;4.448;2022-11-03T03:30:16;13.42;76.81
71291;DHT22;59073;51.994;4.448;2022-11-03T03:32:46;13.42;76.74
71291;DHT22;59073;51.994;4.448;2022-11-03T03:35:18;13.42;76.70
71291;DHT22;59073;51.994;4.448;2022-11-03T03:37:49;13.45;76.83
71291;DHT22;59073;51.994;4.448;2022-11-03T03:40:20;13.43;76.68
71291;DHT22;59073;51.994;4.448;2022-11-03T03:42:48;13.50;76.57
71291;DHT22;59073;51.994;4.448;2022-11-03T03:45:18;13.48;76.67
71291;DHT22;59073;51.994;4.448;2022-11-03T03:47:44;13.42;76.82
71291;DHT22;59073;51.994;4.448;2022-11-03T03:50:11;13.43;76.67
71291;DHT22;59073;51.994;4.448;2022-11-03T03:52:37;13.45;76.78
71291;DHT22;59073;51.994;4.448;2022-11-03T03:55:03;13.50;76.74
71291;DHT22;59073;51.994;4.448;2022-11-03T03:57:31;13.55;76.56
71291;DHT22;59073;51.994;4.448;2022-11-03T03:59:56;13.52;76.79
71291;DHT22;59073;51.994;4.448;2022-11-03T04:02:22;13.38;76.97
71291;DHT22;59073;51.994;4.448;2022-11-03T04:04:47;13.41;77.09
71291;DHT22;59073;51.994;4.448;2022-11-03T04:07:13;13.39;76.98
71291;DHT22;59073;51.994;4.448;2022-11-03T04:09:57;13.48;76.94
71291;DHT22;59073;51.994;4.448;2022-11-03T04:12:22;13.42;77.07
71291;DHT22;59073;51.994;4.448;2022-11-03T04:15:11;13.41;77.08
71291;DHT22;59073;51.994;4.448;2022-11-03T04:17:55;13.38;77.18
71291;DHT22;59073;51.994;4.448;2022-11-03T04:20:39;13.41;77.40
71291;DHT22;59073;51.994;4.448;2022-11-03T04:23:23;13.39;77.43
71291;DHT22;59073;51.994;4.448;2022-11-03T04:25:55;13.29;77.61
71291;DHT22;59073;51.994;4.448;2022-11-03T04:28:21;13.35;77.53
71291;DHT22;59073;51.994;4.448;2022-11-03T04:30:46;13.34;77.65
71291;DHT22;59073;51.994;4.448;2022-11-03T04:33:19;13.34;77.75
71291;DHT22;59073;51.994;4.448;2022-11-03T04:35:46;13.32;78.05
71291;DHT22;59073;51.994;4.448;2022-11-03T04:40:44;13.34;78.08
71291;DHT22;59073;51.994;4.448;2022-11-03T04:43:12;13.36;78.05
71291;DHT22;59073;51.994;4.448;2022-11-03T04:45:38;13.32;78.29
71291;DHT22;59073;51.994;4.448;2022-11-03T04:48:20;13.43;78.12
71291;DHT22;59073;51.994;4.448;2022-11-03T04:50:48;13.32;78.35
71291;DHT22;59073;51.994;4.448;2022-11-03T04:53:17;13.36;78.26
71291;DHT22;59073;51.994;4.448;2022-11-03T04:55:44;13.42;78.35
71291;DHT22;59073;51.994;4.448;2022-11-03T05:00:44;13.42;78.50
71291;DHT22;59073;51.994;4.448;2022-11-03T05:03:16;13.50;78.22
71291;DHT22;59073;51.994;4.448;2022-11-03T05:05:44;13.55;78.20
71291;DHT22;59073;51.994;4.448;2022-11-03T05:08:11;13.59;78.16
71291;DHT22;59073;51.994;4.448;2022-11-03T05:10:36;13.62;78.14
71291;DHT22;59073;51.994;4.448;2022-11-03T05:13:02;13.65;77.99
71291;DHT22;59073;51.994;4.448;2022-11-03T05:15:31;13.73;77.93
71291;DHT22;59073;51.994;4.448;2022-11-03T05:17:59;13.69;77.98
71291;DHT22;59073;51.994;4.448;2022-11-03T05:20:33;13.76;77.92
71291;DHT22;59073;51.994;4.448;2022-11-03T05:23:00;13.80;78.12
71291;DHT22;59073;51.994;4.448;2022-11-03T05:25:39;13.70;78.15
71291;DHT22;59073;51.994;4.448;2022-11-03T05:28:20;13.77;78.00
71291;DHT22;59073;51.994;4.448;2022-11-03T05:30:49;13.77;78.02
71291;DHT22;59073;51.994;4.448;2022-11-03T05:33:25;13.77;77.96
71291;DHT22;59073;51.994;4.448;2022-11-03T05:35:53;13.80;77.88
71291;DHT22;59073;51.994;4.448;2022-11-03T05:38:21;13.76;77.99
71291;DHT22;59073;51.994;4.448;2022-11-03T05:40:49;13.66;78.20
71291;DHT22;59073;51.994;4.448;2022-11-03T05:43:17;13.63;78.46
71291;DHT22;59073;51.994;4.448;2022-11-03T05:45:43;13.66;78.51
71291;DHT22;59073;51.994;4.448;2022-11-03T05:48:31;13.62;78.59
71291;DHT22;59073;51.994;4.448;2022-11-03T05:50:58;13.55;78.83
71291;DHT22;59073;51.994;4.448;2022-11-03T05:53:36;13.55;78.85
71291;DHT22;59073;51.994;4.448;2022-11-03T05:56:05;13.55;78.81
71291;DHT22;59073;51.994;4.448;2022-11-03T05:58:34;13.60;78.84
71291;DHT22;59073;51.994;4.448;2022-11-03T06:01:03;13.60;78.85
71291;DHT22;59073;51.994;4.448;2022-11-03T06:03:34;13.50;79.10
71291;DHT22;59073;51.994;4.448;2022-11-03T06:06:00;13.58;79.05
71291;DHT22;59073;51.994;4.448;2022-11-03T06:08:32;13.56;79.07
71291;DHT22;59073;51.994;4.448;2022-11-03T06:11:02;13.55;79.01
71291;DHT22;59073;51.994;4.448;2022-11-03T06:13:34;13.60;78.94
71291;DHT22;59073;51.994;4.448;2022-11-03T06:18:53;13.65;78.75
71291;DHT22;59073;51.994;4.448;2022-11-03T06:21:23;13.55;79.03
71291;DHT22;59073;51.994;4.448;2022-11-03T06:23:51;13.50;78.98
71291;DHT22;59073;51.994;4.448;2022-11-03T06:26:21;13.58;79.07
71291;DHT22;59073;51.994;4.448;2022-11-03T06:28:48;13.53;79.16
71291;DHT22;59073;51.994;4.448;2022-11-03T06:31:23;13.56;78.98
71291;DHT22;59073;51.994;4.448;2022-11-03T06:33:52;13.56;79.03
71291;DHT22;59073;51.994;4.448;2022-11-03T06:36:31;13.59;78.95
71291;DHT22;59073;51.994;4.448;2022-11-03T06:39:08;13.52;79.42
71291;DHT22;59073;51.994;4.448;2022-11-03T06:41:38;13.58;79.11
71291;DHT22;59073;51.994;4.448;2022-11-03T06:44:22;13.36;79.67
71291;DHT22;59073;51.994;4.448;2022-11-03T06:46:49;13.36;79.84
71291;DHT22;59073;51.994;4.448;2022-11-03T06:49:27;13.32;79.75
71291;DHT22;59073;51.994;4.448;2022-11-03T06:51:55;13.41;79.72
71291;DHT22;59073;51.994;4.448;2022-11-03T06:54:21;13.42;79.54
71291;DHT22;59073;51.994;4.448;2022-11-03T06:56:46;13.43;79.61
71291;DHT22;59073;51.994;4.448;2022-11-03T06:59:13;13.39;79.59
71291;DHT22;59073;51.994;4.448;2022-11-03T07:01:40;13.38;79.80
71291;DHT22;59073;51.994;4.448;2022-11-03T07:04:20;13.35;79.87
71291;DHT22;59073;51.994;4.448;2022-11-03T07:06:47;13.38;79.93
71291;DHT22;59073;51.994;4.448;2022-11-03T07:09:21;13.34;80.09
71291;DHT22;59073;51.994;4.448;2022-11-03T07:11:50;13.35;80.10
71291;DHT22;59073;51.994;4.448;2022-11-03T07:16:58;13.31;80.06
71291;DHT22;59073;51.994;4.448;2022-11-03T07:19:36;13.34;80.20
71291;DHT22;59073;51.994;4.448;2022-11-03T07:22:17;13.42;79.98
71291;DHT22;59073;51.994;4.448;2022-11-03T07:24:52;13.38;79.79
71291;DHT22;59073;51.994;4.448;2022-11-03T07:27:30;13.43;79.63
71291;DHT22;59073;51.994;4.448;2022-11-03T07:30:18;13.52;79.56
71291;DHT22;59073;51.994;4.448;2022-11-03T07:32:45;13.59;79.56
71291;DHT22;59073;51.994;4.448;2022-11-03T07:37:47;13.55;79.50
71291;DHT22;59073;51.994;4.448;2022-11-03T07:40:21;13.59;79.46
71291;DHT22;59073;51.994;4.448;2022-11-03T07:42:48;13.56;79.54
71291;DHT22;59073;51.994;4.448;2022-11-03T07:48:17;13.56;79.80
71291;DHT22;59073;51.994;4.448;2022-11-03T07:50:44;13.49;79.82
71291;DHT22;59073;51.994;4.448;2022-11-03T07:53:19;13.53;80.00
71291;DHT22;59073;51.994;4.448;2022-11-03T07:55:45;13.46;80.19
71291;DHT22;59073;51.994;4.448;2022-11-03T07:58:43;13.53;80.07
71291;DHT22;59073;51.994;4.448;2022-11-03T08:01:24;13.49;80.18
71291;DHT22;59073;51.994;4.448;2022-11-03T08:04:00;13.52;80.12
71291;DHT22;59073;51.994;4.448;2022-11-03T08:06:26;13.50;80.22
71291;DHT22;59073;51.994;4.448;2022-11-03T08:08:51;13.46;80.36
71291;DHT22;59073;51.994;4.448;2022-11-03T08:11:17;13.53;80.26
71291;DHT22;59073;51.994;4.448;2022-11-03T08:13:42;13.56;80.37
71291;DHT22;59073;51.994;4.448;2022-11-03T08:16:08;13.46;80.30
71291;DHT22;59073;51.994;4.448;2022-11-03T08:18:33;13.49;80.65
71291;DHT22;59073;51.994;4.448;2022-11-03T08:20:59;13.46;80.63
71291;DHT22;59073;51.994;4.448;2022-11-03T08:23:24;13.55;80.38
71291;DHT22;59073;51.994;4.448;2022-11-03T08:25:50;13.53;80.44
71291;DHT22;59073;51.994;4.448;2022-11-03T08:28:15;13.59;80.27
71291;DHT22;59073;51.994;4.448;2022-11-03T08:30:41;13.72;80.32
71291;DHT22;59073;51.994;4.448;2022-11-03T08:33:16;13.73;80.05
71291;DHT22;59073;51.994;4.448;2022-11-03T08:35:44;13.74;80.01
71291;DHT22;59073;51.994;4.448;2022-11-03T08:38:25;13.84;79.60
71291;DHT22;59073;51.994;4.448;2022-11-03T08:40:52;13.94;79.27
71291;DHT22;59073;51.994;4.448;2022-11-03T08:43:29;13.90;79.11
71291;DHT22;59073;51.994;4.448;2022-11-03T08:45:55;14.01;78.84
71291;DHT22;59073;51.994;4.448;2022-11-03T08:48:25;14.07;78.81
71291;DHT22;59073;51.994;4.448;2022-11-03T08:50:54;14.11;78.80
71291;DHT22;59073;51.994;4.448;2022-11-03T08:53:28;14.11;78.52
71291;DHT22;59073;51.994;4.448;2022-11-03T08:56:08;14.16;78.28
71291;DHT22;59073;51.994;4.448;2022-11-03T08:58:33;14.28;78.23
71291;DHT22;59073;51.994;4.448;2022-11-03T09:00:59;14.25;78.11
71291;DHT22;59073;51.994;4.448;2022-11-03T09:03:25;14.31;77.78
71291;DHT22;59073;51.994;4.448;2022-11-03T09:05:50;14.31;77.83
71291;DHT22;59073;51.994;4.448;2022-11-03T09:08:16;14.37;77.70
71291;DHT22;59073;51.994;4.448;2022-11-03T09:10:41;14.38;77.56
71291;DHT22;59073;51.994;4.448;2022-11-03T09:13:10;14.44;77.24
71291;DHT22;59073;51.994;4.448;2022-11-03T09:15:35;14.40;77.54
71291;DHT22;59073;51.994;4.448;2022-11-03T09:18:07;14.49;76.92
71291;DHT22;59073;51.994;4.448;2022-11-03T09:20:41;14.38;77.18
71291;DHT22;59073;51.994;4.448;2022-11-03T09:23:07;14.46;76.86
71291;DHT22;59073;51.994;4.448;2022-11-03T09:25:32;14.48;76.85
71291;DHT22;59073;51.994;4.448;2022-11-03T09:27:58;14.57;76.91
71291;DHT22;59073;51.994;4.448;2022-11-03T09:30:23;14.64;76.78
71291;DHT22;59073;51.994;4.448;2022-11-03T09:32:49;14.69;76.57
71291;DHT22;59073;51.994;4.448;2022-11-03T09:35:29;14.69;76.10
71291;DHT22;59073;51.994;4.448;2022-11-03T09:38:06;14.85;75.96
71291;DHT22;59073;51.994;4.448;2022-11-03T09:40:35;14.93;76.02
71291;DHT22;59073;51.994;4.448;2022-11-03T09:43:03;14.73;75.69
71291;DHT22;59073;51.994;4.448;2022-11-03T09:45:29;14.79;75.63
71291;DHT22;59073;51.994;4.448;2022-11-03T09:47:54;14.88;75.58
71291;DHT22;59073;51.994;4.448;2022-11-03T09:50:20;14.95;75.53
71291;DHT22;59073;51.994;4.448;2022-11-03T09:52:52;14.99;75.59
71291;DHT22;59073;51.994;4.448;2022-11-03T09:55:44;14.92;75.32
71291;DHT22;59073;51.994;4.448;2022-11-03T09:58:41;14.98;74.98
71291;DHT22;59073;51.994;4.448;2022-11-03T10:01:10;14.88;75.03
71291;DHT22;59073;51.994;4.448;2022-11-03T10:03:37;14.81;74.83
71291;DHT22;59073;51.994;4.448;2022-11-03T10:06:04;14.78;74.64
71291;DHT22;59073;51.994;4.448;2022-11-03T10:08:31;14.71;75.10
71291;DHT22;59073;51.994;4.448;2022-11-03T10:11:02;14.73;74.47
71291;DHT22;59073;51.994;4.448;2022-11-03T10:13:38;14.67;74.90
71291;DHT22;59073;51.994;4.448;2022-11-03T10:16:08;14.58;74.43
71291;DHT22;59073;51.994;4.448;2022-11-03T10:18:43;14.57;74.54
71291;DHT22;59073;51.994;4.448;2022-11-03T10:21:18;14.65;74.01
71291;DHT22;59073;51.994;4.448;2022-11-03T10:23:43;14.69;74.41
71291;DHT22;59073;51.994;4.448;2022-11-03T10:26:15;14.86;74.16
71291;DHT22;59073;51.994;4.448;2022-11-03T10:31:36;14.82;73.81
71291;DHT22;59073;51.994;4.448;2022-11-03T10:34:05;14.75;73.74
71291;DHT22;59073;51.994;4.448;2022-11-03T10:39:56;14.92;73.21
71291;DHT22;59073;51.994;4.448;2022-11-03T10:42:28;15.09;72.22
71291;DHT22;59073;51.994;4.448;2022-11-03T10:45:22;15.13;72.25
71291;DHT22;59073;51.994;4.448;2022-11-03T10:48:01;15.26;72.01
71291;DHT22;59073;51.994;4.448;2022-11-03T10:50:28;15.24;71.59
71291;DHT22;59073;51.994;4.448;2022-11-03T10:52:57;15.31;72.29
71291;DHT22;59073;51.994;4.448;2022-11-03T10:58:11;15.37;72.10
71291;DHT22;59073;51.994;4.448;2022-11-03T11:00:39;15.57;71.11
71291;DHT22;59073;51.994;4.448;2022-11-03T11:03:10;15.57;70.79
71291;DHT22;59073;51.994;4.448;2022-11-03T11:05:58;15.49;70.76
71291;DHT22;59073;51.994;4.448;2022-11-03T11:08:31;15.58;70.65
71291;DHT22;59073;51.994;4.448;2022-11-03T11:11:05;15.58;71.07
71291;DHT22;59073;51.994;4.448;2022-11-03T11:13:39;15.49;70.97
71291;DHT22;59073;51.994;4.448;2022-11-03T11:19:14;15.37;71.98
71291;DHT22;59073;51.994;4.448;2022-11-03T11:24:09;15.47;71.89
71291;DHT22;59073;51.994;4.448;2022-11-03T11:26:38;15.36;71.95
71291;DHT22;59073;51.994;4.448;2022-11-03T11:31:43;15.61;71.53
71291;DHT22;59073;51.994;4.448;2022-11-03T11:39:44;15.68;71.36
71291;DHT22;59073;51.994;4.448;2022-11-03T11:42:16;15.70;70.28
71291;DHT22;59073;51.994;4.448;2022-11-03T11:44:46;15.74;71.38
71291;DHT22;59073;51.994;4.448;2022-11-03T11:47:41;15.54;71.23
71291;DHT22;59073;51.994;4.448;2022-11-03T11:52:45;15.44;71.52
71291;DHT22;59073;51.994;4.448;2022-11-03T12:01:33;15.34;70.97
71291;DHT22;59073;51.994;4.448;2022-11-03T12:04:07;15.41;70.97
71291;DHT22;59073;51.994;4.448;2022-11-03T12:06:38;15.34;71.28
71291;DHT22;59073;51.994;4.448;2022-11-03T12:09:05;15.33;71.54
71291;DHT22;59073;51.994;4.448;2022-11-03T12:14:33;15.49;71.65
71291;DHT22;59073;51.994;4.448;2022-11-03T12:19:44;15.47;70.87
71291;DHT22;59073;51.994;4.448;2022-11-03T12:24:44;15.60;71.49
71291;DHT22;59073;51.994;4.448;2022-11-03T12:29:45;16.01;71.52
71291;DHT22;59073;51.994;4.448;2022-11-03T12:32:10;16.02;70.33
71291;DHT22;59073;51.994;4.448;2022-11-03T12:34:36;15.97;69.72
71291;DHT22;59073;51.994;4.448;2022-11-03T12:37:01;16.00;69.93
71291;DHT22;59073;51.994;4.448;2022-11-03T12:39:27;16.30;69.97
71291;DHT22;59073;51.994;4.448;2022-11-03T12:41:52;16.69;68.83
71291;DHT22;59073;51.994;4.448;2022-11-03T12:44:17;17.08;67.92
71291;DHT22;59073;51.994;4.448;2022-11-03T12:46:43;17.04;67.61
71291;DHT22;59073;51.994;4.448;2022-11-03T12:49:12;16.77;67.26
71291;DHT22;59073;51.994;4.448;2022-11-03T12:51:37;16.59;68.08
71291;DHT22;59073;51.994;4.448;2022-11-03T12:54:03;16.50;67.61
71291;DHT22;59073;51.994;4.448;2022-11-03T12:56:28;16.39;67.80
71291;DHT22;59073;51.994;4.448;2022-11-03T12:58:53;16.46;68.43
71291;DHT22;59073;51.994;4.448;2022-11-03T13:01:19;16.57;68.99
71291;DHT22;59073;51.994;4.448;2022-11-03T13:03:45;16.49;68.11
71291;DHT22;59073;51.994;4.448;2022-11-03T13:06:29;16.52;69.24
71291;DHT22;59073;51.994;4.448;2022-11-03T13:08:54;16.38;69.09
71291;DHT22;59073;51.994;4.448;2022-11-03T13:11:23;16.30;68.86
71291;DHT22;59073;51.994;4.448;2022-11-03T13:14:07;16.45;69.17
71291;DHT22;59073;51.994;4.448;2022-11-03T13:16:35;16.69;69.19
71291;DHT22;59073;51.994;4.448;2022-11-03T13:19:01;16.57;68.33
71291;DHT22;59073;51.994;4.448;2022-11-03T13:21:26;16.67;69.20
71291;DHT22;59073;51.994;4.448;2022-11-03T13:23:52;16.87;69.16
71291;DHT22;59073;51.994;4.448;2022-11-03T13:26:17;16.95;69.05
71291;DHT22;59073;51.994;4.448;2022-11-03T13:28:44;16.91;68.74
71291;DHT22;59073;51.994;4.448;2022-11-03T13:31:09;16.85;68.32
71291;DHT22;59073;51.994;4.448;2022-11-03T13:33:35;16.67;67.73
71291;DHT22;59073;51.994;4.448;2022-11-03T13:36:06;16.66;68.01
71291;DHT22;59073;51.994;4.448;2022-11-03T13:38:37;16.63;68.28
71291;DHT22;59073;51.994;4.448;2022-11-03T13:41:04;16.66;67.93
71291;DHT22;59073;51.994;4.448;2022-11-03T13:43:29;16.59;68.36
71291;DHT22;59073;51.994;4.448;2022-11-03T13:46:01;16.45;68.42
71291;DHT22;59073;51.994;4.448;2022-11-03T13:48:37;16.53;69.12
71291;DHT22;59073;51.994;4.448;2022-11-03T13:51:02;16.67;69.17
71291;DHT22;59073;51.994;4.448;2022-11-03T13:53:28;16.56;68.38
71291;DHT22;59073;51.994;4.448;2022-11-03T13:55:56;16.56;68.75
71291;DHT22;59073;51.994;4.448;2022-11-03T13:58:24;16.42;68.36
71291;DHT22;59073;51.994;4.448;2022-11-03T14:00:49;16.56;68.80
71291;DHT22;59073;51.994;4.448;2022-11-03T14:03:17;16.53;67.98
71291;DHT22;59073;51.994;4.448;2022-11-03T14:05:46;16.42;68.60
71291;DHT22;59073;51.994;4.448;2022-11-03T14:08:11;16.39;68.73
71291;DHT22;59073;51.994;4.448;2022-11-03T14:10:37;16.29;68.19
71291;DHT22;59073;51.994;4.448;2022-11-03T14:13:02;16.33;69.14
71291;DHT22;59073;51.994;4.448;2022-11-03T14:15:27;16.34;68.47
71291;DHT22;59073;51.994;4.448;2022-11-03T14:17:53;16.39;68.65
71291;DHT22;59073;51.994;4.448;2022-11-03T14:20:19;16.34;68.15
71291;DHT22;59073;51.994;4.448;2022-11-03T14:22:44;16.39;68.51
71291;DHT22;59073;51.994;4.448;2022-11-03T14:25:09;16.38;68.14
71291;DHT22;59073;51.994;4.448;2022-11-03T14:27:35;16.29;68.31
71291;DHT22;59073;51.994;4.448;2022-11-03T14:30:00;16.22;68.53
71291;DHT22;59073;51.994;4.448;2022-11-03T14:32:26;16.04;69.68
71291;DHT22;59073;51.994;4.448;2022-11-03T14:35:07;15.94;69.01
71291;DHT22;59073;51.994;4.448;2022-11-03T14:37:33;15.95;69.64
71291;DHT22;59073;51.994;4.448;2022-11-03T14:40:02;15.81;69.79
71291;DHT22;59073;51.994;4.448;2022-11-03T14:42:27;15.84;69.60
71291;DHT22;59073;51.994;4.448;2022-11-03T14:44:52;15.72;69.77
71291;DHT22;59073;51.994;4.448;2022-11-03T14:47:19;15.77;69.77
71291;DHT22;59073;51.994;4.448;2022-11-03T14:49:50;15.85;70.35
71291;DHT22;59073;51.994;4.448;2022-11-03T14:52:16;15.80;69.93
71291;DHT22;59073;51.994;4.448;2022-11-03T14:54:44;15.75;70.77
71291;DHT22;59073;51.994;4.448;2022-11-03T14:57:10;15.90;70.42
71291;DHT22;59073;51.994;4.448;2022-11-03T14:59:36;15.72;69.83
71291;DHT22;59073;51.994;4.448;2022-11-03T15:02:02;15.68;70.05
71291;DHT22;59073;51.994;4.448;2022-11-03T15:04:28;15.77;70.33
71291;DHT22;59073;51.994;4.448;2022-11-03T15:06:53;15.80;70.74
71291;DHT22;59073;51.994;4.448;2022-11-03T15:09:19;15.71;70.77
71291;DHT22;59073;51.994;4.448;2022-11-03T15:11:45;15.62;71.21
71291;DHT22;59073;51.994;4.448;2022-11-03T15:14:11;15.49;71.23
71291;DHT22;59073;51.994;4.448;2022-11-03T15:16:37;15.55;70.97
71291;DHT22;59073;51.994;4.448;2022-11-03T15:19:05;15.49;71.24
71291;DHT22;59073;51.994;4.448;2022-11-03T15:21:31;15.41;71.32
71291;DHT22;59073;51.994;4.448;2022-11-03T15:23:57;15.49;71.52
71291;DHT22;59073;51.994;4.448;2022-11-03T15:26:29;15.46;71.65
71291;DHT22;59073;51.994;4.448;2022-11-03T15:28:54;15.44;72.02
71291;DHT22;59073;51.994;4.448;2022-11-03T15:31:19;15.23;72.17
71291;DHT22;59073;51.994;4.448;2022-11-03T15:33:45;15.27;72.40
71291;DHT22;59073;51.994;4.448;2022-11-03T15:36:10;15.23;72.88
71291;DHT22;59073;51.994;4.448;2022-11-03T15:38:36;15.36;73.09
71291;DHT22;59073;51.994;4.448;2022-11-03T15:41:01;15.20;73.32
71291;DHT22;59073;51.994;4.448;2022-11-03T15:43:46;15.13;73.33
71291;DHT22;59073;51.994;4.448;2022-11-03T15:46:13;15.18;73.51
71291;DHT22;59073;51.994;4.448;2022-11-03T15:48:39;15.06;74.01
71291;DHT22;59073;51.994;4.448;2022-11-03T15:51:05;14.88;74.15
71291;DHT22;59073;51.994;4.448;2022-11-03T15:53:31;14.81;74.67
71291;DHT22;59073;51.994;4.448;2022-11-03T15:55:56;14.86;74.74
71291;DHT22;59073;51.994;4.448;2022-11-03T15:58:21;14.76;74.78
71291;DHT22;59073;51.994;4.448;2022-11-03T16:00:47;14.68;75.36
71291;DHT22;59073;51.994;4.448;2022-11-03T16:03:12;14.64;75.53
71291;DHT22;59073;51.994;4.448;2022-11-03T16:05:38;14.58;75.83
71291;DHT22;59073;51.994;4.448;2022-11-03T16:08:03;14.62;76.22
71291;DHT22;59073;51.994;4.448;2022-11-03T16:10:29;14.45;77.46
71291;DHT22;59073;51.994;4.448;2022-11-03T16:12:54;14.34;78.14
71291;DHT22;59073;51.994;4.448;2022-11-03T16:15:19;14.20;78.82
71291;DHT22;59073;51.994;4.448;2022-11-03T16:17:45;14.18;79.46
71291;DHT22;59073;51.994;4.448;2022-11-03T16:20:10;14.07;80.16
71291;DHT22;59073;51.994;4.448;2022-11-03T16:22:36;13.83;80.52
71291;DHT22;59073;51.994;4.448;2022-11-03T16:25:05;13.84;81.29
71291;DHT22;59073;51.994;4.448;2022-11-03T16:27:30;13.76;81.42
71291;DHT22;59073;51.994;4.448;2022-11-03T16:29:56;13.73;81.90
71291;DHT22;59073;51.994;4.448;2022-11-03T16:32:21;13.73;82.01
71291;DHT22;59073;51.994;4.448;2022-11-03T16:34:47;13.72;82.09
71291;DHT22;59073;51.994;4.448;2022-11-03T16:37:16;13.59;82.73
71291;DHT22;59073;51.994;4.448;2022-11-03T16:39:41;13.55;83.12
71291;DHT22;59073;51.994;4.448;2022-11-03T16:42:07;13.48;83.55
71291;DHT22;59073;51.994;4.448;2022-11-03T16:44:33;13.46;83.81
71291;DHT22;59073;51.994;4.448;2022-11-03T16:46:59;13.42;83.97
71291;DHT22;59073;51.994;4.448;2022-11-03T16:49:25;13.29;84.38
71291;DHT22;59073;51.994;4.448;2022-11-03T16:51:51;13.34;84.41
71291;DHT22;59073;51.994;4.448;2022-11-03T16:54:16;13.22;84.81
71291;DHT22;59073;51.994;4.448;2022-11-03T16:56:42;13.22;84.75
71291;DHT22;59073;51.994;4.448;2022-11-03T16:59:08;13.32;84.50
71291;DHT22;59073;51.994;4.448;2022-11-03T17:01:34;13.25;84.63
71291;DHT22;59073;51.994;4.448;2022-11-03T17:03:59;13.22;84.87